Time;durP1;ratioP1;P1;durP2;ratioP2;P2;SDS_P1;SDS_P2;PMS_P1;PMS_P2;Temp;Humidity;BMP_temperature;BMP_pressure;BME280_temperature;BME280_humidity;BME280_pressure;Samples;Min_cycle;Max_cycle;Signal;HPM_P1;HPM_P2
2022/01/17 00:02:19;;;;;;;5.72;0.30;;;7.00;99.90;;;;;;6310272;22;20031;-76
2022/01/17 00:04:47;;;;;;;6.60;0.20;;;9.20;99.90;;;;;;6312106;22;20003;-76
2022/01/17 00:07:12;;;;;;;4.63;0.40;;;6.90;99.90;;;;;;6311604;22;20015;-75
2022/01/17 00:09:38;;;;;;;5.75;0.20;;;7.00;99.90;;;;;;6312211;22;20049;-75
2022/01/17 00:12:04;;;;;;;11.02;0.60;;;8.00;99.90;;;;;;6311317;22;20311;-75
2022/01/17 00:14:34;;;;;;;10.40;0.45;;;7.10;99.90;;;;;;6311964;22;20049;-76
2022/01/17 00:17:38;;;;;;;13.02;0.45;;;8.40;99.90;;;;;;6311633;22;20366;-75
2022/01/17 00:19:55;;;;;;;5.68;0.95;;;10.30;99.90;;;;;;6308617;22;20007;-75
2022/01/17 00:22:22;;;;;;;15.83;0.53;;;8.90;99.90;;;;;;6310342;22;20003;-75
2022/01/17 00:24:48;;;;;;;10.13;1.20;;;7.40;99.90;;;;;;6309822;22;20003;-75
2022/01/17 00:27:14;;;;;;;15.52;0.25;;;7.00;99.90;;;;;;6309719;22;20003;-75
2022/01/17 00:29:40;;;;;;;2.70;0.20;;;7.10;99.90;;;;;;6315267;22;20052;-83
2022/01/17 00:32:06;;;;;;;6.72;0.20;;;7.10;99.90;;;;;;6315890;22;19995;-82
2022/01/17 00:34:31;;;;;;;4.68;0.80;;;7.00;99.90;;;;;;6316258;22;20082;-82
2022/01/17 00:36:57;;;;;;;9.32;1.02;;;7.10;99.90;;;;;;6315405;22;20033;-82
2022/01/17 00:39:26;;;;;;;3.90;0.10;;;7.10;99.90;;;;;;6316360;22;20053;-83
2022/01/17 00:41:52;;;;;;;7.07;0.52;;;9.20;99.90;;;;;;6317755;22;20008;-81
2022/01/17 00:44:21;;;;;;;7.47;0.20;;;7.10;99.90;;;;;;6317231;22;19999;-81
2022/01/17 00:46:48;;;;;;;3.50;0.00;;;7.00;99.90;;;;;;6317242;22;20004;-81
2022/01/17 00:49:14;;;;;;;11.10;0.35;;;7.10;99.90;;;;;;6319778;22;20482;-81
2022/01/17 00:51:40;;;;;;;9.85;0.52;;;7.10;99.90;;;;;;6319309;22;20010;-82
2022/01/17 00:54:05;;;;;;;14.38;0.45;;;7.10;99.90;;;;;;6316562;22;20003;-82
2022/01/17 00:56:31;;;;;;;8.40;0.28;;;7.10;99.90;;;;;;6318452;22;20010;-81
2022/01/17 00:58:57;;;;;;;5.13;0.20;;;7.20;99.90;;;;;;6318116;22;19999;-81
2022/01/17 01:01:23;;;;;;;5.20;0.40;;;8.00;99.90;;;;;;6317949;22;20000;-82
2022/01/17 01:03:48;;;;;;;6.32;0.13;;;7.10;99.90;;;;;;6317782;22;20007;-82
2022/01/17 01:06:14;;;;;;;4.78;0.13;;;7.10;99.90;;;;;;6316727;22;20039;-82
2022/01/17 01:08:43;;;;;;;6.53;0.25;;;7.10;99.90;;;;;;6318780;22;19999;-82
2022/01/17 01:11:09;;;;;;;9.07;0.38;;;7.10;99.90;;;;;;6317753;22;20432;-81
2022/01/17 01:13:36;;;;;;;8.57;0.13;;;7.10;99.90;;;;;;6320206;22;20003;-81
2022/01/17 01:29:02;;;;;;;7.93;0.35;;;7.00;99.90;;;;;;6309000;22;20015;-76
2022/01/17 01:31:41;;;;;;;3.97;0.00;;;7.00;99.90;;;;;;6306984;22;20316;-76
2022/01/17 01:34:08;;;;;;;7.93;0.20;;;6.90;99.90;;;;;;6309548;22;20321;-76
2022/01/17 01:36:35;;;;;;;5.03;0.10;;;6.90;99.90;;;;;;6308537;22;20090;-76
2022/01/17 01:39:01;;;;;;;5.93;0.52;;;6.90;99.90;;;;;;6308555;22;20342;-75
2022/01/17 01:41:26;;;;;;;10.25;0.55;;;7.00;99.90;;;;;;6308666;22;20082;-77
2022/01/17 01:43:52;;;;;;;10.25;0.28;;;7.00;99.90;;;;;;6308390;22;20035;-76
2022/01/17 01:46:20;;;;;;;9.05;0.15;;;6.90;99.90;;;;;;6308388;22;19996;-76
2022/01/17 01:48:46;;;;;;;5.35;0.43;;;6.90;99.90;;;;;;6307024;22;20006;-76
2022/01/17 01:51:13;;;;;;;13.05;1.25;;;6.90;99.90;;;;;;6306542;22;20003;-76
2022/01/17 01:53:38;;;;;;;8.18;0.75;;;6.80;99.90;;;;;;6308698;22;20003;-75
2022/01/17 01:56:05;;;;;;;3.53;0.25;;;6.70;99.90;;;;;;6308101;22;20078;-76
2022/01/17 01:58:30;;;;;;;12.27;1.17;;;6.70;99.90;;;;;;6307700;22;20004;-76
2022/01/17 02:00:56;;;;;;;10.20;0.80;;;6.60;99.90;;;;;;6306893;22;20322;-75
2022/01/17 02:03:22;;;;;;;10.82;0.45;;;6.60;99.90;;;;;;6306642;22;20011;-76
2022/01/17 02:05:48;;;;;;;3.20;0.00;;;6.50;99.90;;;;;;6306772;22;19999;-76
2022/01/17 02:08:15;;;;;;;6.35;0.10;;;6.40;99.90;;;;;;6308705;22;19999;-75
2022/01/17 02:10:42;;;;;;;9.43;0.47;;;6.30;99.90;;;;;;6306587;22;20003;-76
2022/01/17 02:13:08;;;;;;;9.18;0.00;;;6.20;99.90;;;;;;6308559;22;20489;-76
2022/01/17 02:15:33;;;;;;;4.72;0.10;;;6.10;99.90;;;;;;6308787;22;19999;-76
2022/01/17 02:17:59;;;;;;;8.98;0.50;;;6.00;99.90;;;;;;6308627;22;20442;-76
2022/01/17 02:20:35;;;;;;;6.32;0.77;;;6.00;99.90;;;;;;6307010;22;20316;-76
2022/01/17 02:23:04;;;;;;;12.95;0.68;;;6.00;99.90;;;;;;6309296;22;20346;-76
2022/01/17 02:25:30;;;;;;;7.05;0.52;;;5.90;99.90;;;;;;6308608;22;19999;-76
2022/01/17 02:27:56;;;;;;;5.00;0.20;;;5.90;99.90;;;;;;6308793;22;20033;-77
2022/01/17 02:30:23;;;;;;;5.65;0.20;;;5.80;99.90;;;;;;6308281;22;20006;-77
2022/01/17 02:32:49;;;;;;;9.10;0.15;;;5.80;99.90;;;;;;6308725;22;20010;-78
2022/01/17 02:35:22;;;;;;;11.43;0.65;;;5.70;99.90;;;;;;6306676;22;20090;-78
2022/01/17 02:37:48;;;;;;;6.45;0.63;;;5.60;99.90;;;;;;6308186;22;20011;-78
2022/01/17 02:40:16;;;;;;;9.88;0.10;;;5.50;99.90;;;;;;6308760;22;20434;-77
2022/01/17 02:42:43;;;;;;;10.52;0.20;;;5.40;99.90;;;;;;6306739;22;20011;-77
2022/01/17 02:45:30;;;;;;;14.77;0.43;;;5.30;99.90;;;;;;6306472;22;20003;-75
2022/01/17 02:47:56;;;;;;;7.63;0.25;;;5.30;99.90;;;;;;6307910;22;20003;-76
2022/01/17 02:50:22;;;;;;;8.80;1.10;;;5.20;99.90;;;;;;6307762;22;20006;-76
2022/01/17 02:52:47;;;;;;;7.10;0.15;;;5.10;99.90;;;;;;6308264;22;20008;-76
2022/01/17 02:55:13;;;;;;;6.82;1.05;;;5.00;99.90;;;;;;6307960;22;20007;-75
2022/01/17 02:57:38;;;;;;;9.95;0.60;;;5.10;99.90;;;;;;6308259;22;20003;-76
2022/01/17 03:00:08;;;;;;;5.75;0.43;;;5.00;99.90;;;;;;6306152;22;20003;-76
2022/01/17 03:02:34;;;;;;;8.65;0.03;;;5.00;99.90;;;;;;6307975;22;20438;-77
2022/01/17 03:05:00;;;;;;;7.80;0.73;;;5.00;99.90;;;;;;6307985;22;20005;-76
2022/01/17 03:07:25;;;;;;;4.63;0.22;;;5.00;99.90;;;;;;6306303;22;20004;-77
2022/01/17 03:10:02;;;;;;;7.97;0.47;;;4.90;99.90;;;;;;6306792;22;20474;-77
2022/01/17 03:12:30;;;;;;;13.20;0.20;;;4.90;99.90;;;;;;6307870;22;20361;-77
2022/01/17 03:14:55;;;;;;;13.05;0.95;;;4.90;99.90;;;;;;6307785;22;20068;-76
2022/01/17 03:17:21;;;;;;;9.77;0.17;;;4.80;99.90;;;;;;6306424;22;20003;-76
2022/01/17 03:19:47;;;;;;;5.68;0.10;;;4.80;99.90;;;;;;6308038;22;20000;-76
2022/01/17 03:22:12;;;;;;;6.80;0.15;;;4.80;99.90;;;;;;6306176;22;19995;-77
2022/01/17 03:24:38;;;;;;;7.53;0.43;;;4.80;99.90;;;;;;6307559;22;20003;-77
2022/01/17 03:27:04;;;;;;;6.57;0.20;;;4.80;99.90;;;;;;6306257;22;20004;-77
2022/01/17 03:29:29;;;;;;;5.85;0.40;;;4.80;99.90;;;;;;6306114;22;19999;-77
2022/01/17 03:31:55;;;;;;;8.02;1.58;;;4.80;99.90;;;;;;6307942;22;20002;-77
2022/01/17 03:34:20;;;;;;;6.00;0.20;;;4.70;99.90;;;;;;6306113;22;20003;-77
2022/01/17 03:36:46;;;;;;;13.52;0.20;;;4.70;99.90;;;;;;6307701;22;20011;-77
2022/01/17 03:39:12;;;;;;;11.13;0.70;;;4.80;99.90;;;;;;6307903;22;20495;-77
2022/01/17 03:41:37;;;;;;;8.63;0.47;;;4.70;99.90;;;;;;6307765;22;20007;-77
2022/01/17 03:44:03;;;;;;;6.45;0.40;;;4.70;99.90;;;;;;6307972;22;20484;-77
2022/01/17 03:46:29;;;;;;;6.18;0.30;;;4.70;99.90;;;;;;6306065;22;19996;-77
2022/01/17 03:48:54;;;;;;;8.85;0.35;;;4.70;99.90;;;;;;6307975;22;19995;-77
2022/01/17 03:51:20;;;;;;;14.02;0.40;;;4.60;99.90;;;;;;6307659;22;19999;-76
2022/01/17 03:53:48;;;;;;;6.50;0.10;;;4.60;99.90;;;;;;6307890;22;20003;-76
2022/01/17 03:56:14;;;;;;;4.00;0.00;;;4.60;99.90;;;;;;6307512;22;20445;-76
2022/01/17 03:58:39;;;;;;;5.80;0.22;;;4.50;99.90;;;;;;6305911;22;20265;-76
2022/01/17 04:01:06;;;;;;;6.03;0.60;;;4.40;99.90;;;;;;6306204;22;20010;-76
2022/01/17 04:03:32;;;;;;;4.18;0.05;;;4.40;99.90;;;;;;6308192;22;20030;-74
2022/01/17 04:05:58;;;;;;;11.85;0.68;;;4.40;99.90;;;;;;6307798;22;19995;-75
2022/01/17 04:08:23;;;;;;;4.78;0.08;;;4.30;99.90;;;;;;6308876;22;19991;-76
2022/01/17 04:10:49;;;;;;;8.73;0.08;;;4.30;99.90;;;;;;6306238;22;20023;-76
2022/01/17 04:13:14;;;;;;;11.68;0.55;;;4.30;99.90;;;;;;6306628;22;20000;-76
2022/01/17 04:15:40;;;;;;;11.80;0.73;;;4.40;99.90;;;;;;6308497;22;20003;-76
2022/01/17 04:18:08;;;;;;;4.85;0.15;;;4.30;99.90;;;;;;6308903;22;20056;-76
2022/01/17 04:20:35;;;;;;;9.10;0.68;;;4.40;99.90;;;;;;6308194;22;20004;-77
2022/01/17 04:23:06;;;;;;;7.57;0.68;;;4.40;99.90;;;;;;6310070;22;20006;-76
2022/01/17 04:25:34;;;;;;;15.30;0.10;;;4.50;99.90;;;;;;6309972;22;20025;-76
2022/01/17 04:28:00;;;;;;;6.97;0.30;;;4.60;99.90;;;;;;6307826;22;20087;-76
2022/01/17 04:30:27;;;;;;;15.02;0.90;;;4.70;99.90;;;;;;6307888;22;20453;-77
2022/01/17 04:32:56;;;;;;;5.47;0.10;;;4.70;99.90;;;;;;6309310;22;19999;-77
2022/01/17 04:35:23;;;;;;;5.85;0.30;;;4.70;99.90;;;;;;6307755;22;20003;-77
2022/01/17 04:37:55;;;;;;;10.05;0.25;;;4.80;99.90;;;;;;6309484;22;20090;-77
2022/01/17 04:40:22;;;;;;;9.23;0.30;;;4.80;99.90;;;;;;6309059;22;20048;-76
2022/01/17 04:42:49;;;;;;;8.23;0.00;;;4.80;99.90;;;;;;6309116;22;20003;-77
2022/01/17 04:45:17;;;;;;;6.82;0.25;;;4.70;99.90;;;;;;6309816;22;19999;-77
2022/01/17 04:47:46;;;;;;;6.53;0.43;;;4.60;99.90;;;;;;6309300;22;19999;-76
2022/01/17 04:50:23;;;;;;;9.90;0.95;;;4.50;99.90;;;;;;6306690;22;20007;-77
2022/01/17 04:52:50;;;;;;;3.95;0.30;;;4.50;99.90;;;;;;6312833;22;20053;-78
2022/01/17 04:55:18;;;;;;;4.82;0.20;;;4.40;99.90;;;;;;6308818;22;20007;-77
2022/01/17 04:57:44;;;;;;;8.38;0.57;;;4.40;99.90;;;;;;6307483;22;20003;-77
2022/01/17 05:00:12;;;;;;;8.98;0.03;;;4.30;99.90;;;;;;6308347;22;20010;-77
2022/01/17 05:02:38;;;;;;;12.15;0.38;;;4.20;99.90;;;;;;6310012;22;20018;-78
2022/01/17 05:05:05;;;;;;;4.88;0.00;;;4.20;99.90;;;;;;6310014;22;20349;-77
2022/01/17 05:07:34;;;;;;;8.02;1.00;;;4.10;99.90;;;;;;6309106;22;19999;-77
2022/01/17 05:10:00;;;;;;;7.85;0.65;;;4.10;99.90;;;;;;6308600;22;20335;-76
2022/01/17 05:12:27;;;;;;;15.52;1.40;;;4.10;99.90;;;;;;6313827;22;19999;-78
2022/01/17 05:14:53;;;;;;;6.32;0.20;;;4.00;99.90;;;;;;6307918;22;20311;-79
2022/01/17 05:19:57;;;;;;;7.97;0.43;;;4.00;99.90;;;;;;6316991;22;20589;-79
2022/01/17 05:22:25;;;;;;;8.43;0.93;;;3.90;99.90;;;;;;6309591;22;20023;-79
2022/01/17 05:24:50;;;;;;;4.03;0.77;;;3.90;99.90;;;;;;6308184;22;19995;-79
2022/01/17 05:27:16;;;;;;;9.00;0.20;;;3.90;99.90;;;;;;6309126;22;20002;-79
2022/01/17 05:29:42;;;;;;;5.38;0.65;;;3.90;99.90;;;;;;6308506;22;20449;-79
2022/01/17 05:32:07;;;;;;;4.40;0.30;;;3.90;99.90;;;;;;6308889;22;20021;-79
2022/01/17 05:34:34;;;;;;;8.23;1.63;;;3.90;99.90;;;;;;6309499;22;19999;-79
2022/01/17 05:37:01;;;;;;;5.35;0.90;;;3.90;99.90;;;;;;6307698;22;20022;-79
2022/01/17 05:39:26;;;;;;;6.70;1.02;;;4.00;99.90;;;;;;6307782;22;20003;-79
2022/01/17 05:41:52;;;;;;;12.20;2.05;;;4.00;99.90;;;;;;6308706;22;20010;-78
2022/01/17 05:44:17;;;;;;;8.38;0.60;;;4.00;99.90;;;;;;6307950;22;20011;-79
2022/01/17 05:46:43;;;;;;;9.20;1.33;;;4.10;99.90;;;;;;6309213;22;20074;-79
2022/01/17 05:49:09;;;;;;;7.78;0.70;;;4.10;99.90;;;;;;6309130;22;19999;-78
2022/01/17 05:51:34;;;;;;;7.53;0.85;;;4.10;99.90;;;;;;6307465;22;19999;-78
2022/01/17 05:54:00;;;;;;;6.65;0.93;;;4.10;99.90;;;;;;6308786;22;20003;-78
2022/01/17 05:56:25;;;;;;;11.05;1.20;;;4.10;99.90;;;;;;6307483;22;20381;-78
2022/01/17 05:58:51;;;;;;;9.88;0.75;;;4.10;99.90;;;;;;6309332;22;20002;-78
2022/01/17 06:01:16;;;;;;;9.95;0.80;;;4.10;99.90;;;;;;6306930;22;20031;-78
2022/01/17 06:03:42;;;;;;;9.38;0.93;;;4.10;99.90;;;;;;6308582;22;19999;-79
2022/01/17 06:06:08;;;;;;;11.95;2.03;;;4.00;99.90;;;;;;6307208;22;20371;-78
2022/01/17 06:08:33;;;;;;;16.20;1.10;;;4.10;99.90;;;;;;6309043;22;20384;-78
2022/01/17 06:10:59;;;;;;;13.43;1.20;;;4.10;99.90;;;;;;6308922;22;20330;-78
2022/01/17 06:13:25;;;;;;;12.07;1.95;;;4.10;99.90;;;;;;6309053;22;20003;-79
2022/01/17 06:15:51;;;;;;;4.95;1.27;;;4.00;99.90;;;;;;6307070;22;20003;-78
2022/01/17 06:18:16;;;;;;;8.13;1.90;;;4.10;99.90;;;;;;6306780;22;20006;-78
2022/01/17 06:20:42;;;;;;;12.10;1.88;;;4.10;99.90;;;;;;6309049;22;20014;-78
2022/01/17 06:23:08;;;;;;;10.82;1.75;;;4.10;99.90;;;;;;6308842;22;20027;-76
2022/01/17 06:25:33;;;;;;;7.15;1.05;;;4.10;99.90;;;;;;6309538;22;20002;-78
2022/01/17 06:27:59;;;;;;;10.90;2.80;;;4.10;99.90;;;;;;6307885;22;19999;-78
2022/01/17 06:30:25;;;;;;;10.82;2.15;;;4.10;99.90;;;;;;6308852;22;19995;-78
2022/01/17 06:32:51;;;;;;;11.85;2.28;;;4.10;99.90;;;;;;6307161;22;20021;-79
2022/01/17 06:35:17;;;;;;;12.20;2.75;;;4.10;99.90;;;;;;6308592;22;20000;-78
2022/01/17 06:37:44;;;;;;;10.38;3.50;;;4.20;99.90;;;;;;6306846;22;20011;-78
2022/01/17 06:40:11;;;;;;;15.10;2.78;;;4.20;99.90;;;;;;6308793;22;20003;-78
2022/01/17 06:42:36;;;;;;;18.90;3.05;;;4.20;99.90;;;;;;6306413;22;20003;-78
2022/01/17 06:45:04;;;;;;;11.82;2.58;;;4.30;99.90;;;;;;6308163;22;20048;-78
2022/01/17 06:47:31;;;;;;;19.87;2.67;;;4.30;99.90;;;;;;6308505;22;20053;-77
2022/01/17 06:49:57;;;;;;;19.48;4.05;;;4.40;99.90;;;;;;6308615;22;20003;-75
2022/01/17 06:52:23;;;;;;;14.63;3.20;;;4.40;99.90;;;;;;6308525;22;19999;-77
2022/01/17 06:54:50;;;;;;;19.02;3.80;;;4.50;99.90;;;;;;6308292;22;20066;-77
2022/01/17 06:57:15;;;;;;;17.58;6.38;;;4.40;99.90;;;;;;6308024;22;20007;-75
2022/01/17 06:59:41;;;;;;;20.23;5.97;;;4.40;99.90;;;;;;6307788;22;20003;-77
2022/01/17 07:02:08;;;;;;;21.08;5.85;;;4.50;99.90;;;;;;6306738;22;20003;-76
2022/01/17 07:04:33;;;;;;;16.40;5.55;;;4.60;99.90;;;;;;6308276;22;20031;-76
2022/01/17 07:07:00;;;;;;;24.88;7.18;;;4.70;99.90;;;;;;6306890;22;20000;-77
2022/01/17 07:09:25;;;;;;;24.60;7.00;;;4.80;99.90;;;;;;6306616;22;20007;-79
2022/01/17 07:11:51;;;;;;;24.45;6.40;;;4.80;99.90;;;;;;6308842;22;20003;-75
2022/01/17 07:14:16;;;;;;;18.17;5.85;;;4.80;99.90;;;;;;6306484;22;20004;-74
2022/01/17 07:16:43;;;;;;;29.45;7.10;;;4.80;99.90;;;;;;6308296;22;20030;-75
2022/01/17 07:19:09;;;;;;;22.63;5.70;;;4.90;99.90;;;;;;6306787;22;20004;-74
2022/01/17 07:21:36;;;;;;;20.17;6.30;;;5.00;99.90;;;;;;6309692;22;20025;-75
2022/01/17 07:24:02;;;;;;;20.40;6.30;;;5.10;99.90;;;;;;6309951;22;20003;-74
2022/01/17 07:26:27;;;;;;;20.45;7.18;;;5.10;99.90;;;;;;6307067;22;20427;-74
2022/01/17 07:28:53;;;;;;;20.20;4.95;;;5.20;99.90;;;;;;6308712;22;20002;-74
2022/01/17 07:31:19;;;;;;;24.02;6.10;;;5.40;99.90;;;;;;6308804;22;20133;-75
2022/01/17 07:33:45;;;;;;;25.23;5.22;;;5.40;99.90;;;;;;6307792;22;19999;-74
2022/01/17 07:36:16;;;;;;;22.95;4.95;;;5.50;99.90;;;;;;6308596;22;20014;-75
2022/01/17 07:38:41;;;;;;;22.83;5.25;;;5.50;99.90;;;;;;6308234;22;20010;-75
2022/01/17 07:41:08;;;;;;;23.42;5.20;;;5.60;99.90;;;;;;6307981;22;19999;-73
2022/01/17 07:43:34;;;;;;;18.33;3.58;;;5.70;99.90;;;;;;6308017;22;20026;-73
2022/01/17 07:46:05;;;;;;;17.83;4.22;;;5.70;99.90;;;;;;6306402;22;19995;-73
2022/01/17 07:51:16;;;;;;;16.80;3.97;;;5.80;99.90;;;;;;6308872;22;20117;-76
2022/01/17 07:53:41;;;;;;;23.38;4.22;;;5.80;99.90;;;;;;6307355;22;20046;-75
2022/01/17 07:56:07;;;;;;;9.25;2.85;;;5.80;99.90;;;;;;6308400;22;20003;-75
2022/01/17 07:58:33;;;;;;;21.42;3.85;;;5.90;99.90;;;;;;6310355;22;20007;-75
2022/01/17 08:00:58;;;;;;;17.17;3.30;;;5.90;99.90;;;;;;6308448;22;20023;-75
2022/01/17 08:03:24;;;;;;;12.43;2.40;;;5.90;99.90;;;;;;6309501;22;20441;-76
2022/01/17 08:05:50;;;;;;;14.95;2.53;;;5.90;99.90;;;;;;6308072;22;20007;-76
2022/01/17 08:08:15;;;;;;;13.65;2.58;;;5.90;99.90;;;;;;6308220;22;19999;-75
2022/01/17 08:10:41;;;;;;;15.85;2.08;;;5.90;99.90;;;;;;6309911;22;19999;-75
2022/01/17 08:13:06;;;;;;;12.73;1.80;;;5.90;99.90;;;;;;6309811;22;20009;-75
2022/01/17 08:15:32;;;;;;;13.73;1.58;;;6.00;99.90;;;;;;6309945;22;20410;-75
2022/01/17 08:17:57;;;;;;;21.67;1.85;;;6.00;99.90;;;;;;6309972;22;20003;-76
2022/01/17 08:20:23;;;;;;;15.85;2.40;;;6.00;99.90;;;;;;6308038;22;20003;-75
2022/01/17 08:22:49;;;;;;;12.07;1.95;;;6.00;99.90;;;;;;6309510;22;20326;-74
2022/01/17 08:25:16;;;;;;;18.13;2.33;;;6.00;99.90;;;;;;6309632;22;20003;-76
2022/01/17 08:27:41;;;;;;;17.05;3.35;;;6.10;99.90;;;;;;6309904;22;19996;-76
2022/01/17 08:30:08;;;;;;;16.10;2.03;;;6.10;99.90;;;;;;6310067;22;19999;-76
2022/01/17 08:32:34;;;;;;;10.02;1.15;;;6.10;99.90;;;;;;6309323;22;20050;-75
2022/01/17 08:34:59;;;;;;;13.55;1.23;;;6.20;99.90;;;;;;6308294;22;19999;-75
2022/01/17 08:37:26;;;;;;;14.75;1.23;;;6.30;99.90;;;;;;6308032;22;20011;-75
2022/01/17 08:39:52;;;;;;;8.13;0.73;;;6.30;99.90;;;;;;6309349;22;20006;-76
2022/01/17 08:42:19;;;;;;;9.55;1.30;;;6.30;99.90;;;;;;6307748;22;20026;-76
2022/01/17 08:44:50;;;;;;;12.82;1.30;;;6.30;99.90;;;;;;6307727;22;20009;-75
2022/01/17 08:47:17;;;;;;;13.95;1.23;;;6.40;99.90;;;;;;6309540;22;20070;-75
2022/01/17 08:49:43;;;;;;;21.95;1.45;;;6.40;99.90;;;;;;6309926;22;20411;-75
2022/01/17 08:52:09;;;;;;;16.90;1.80;;;6.50;99.90;;;;;;6308567;22;20002;-76
2022/01/17 08:54:35;;;;;;;9.85;0.77;;;6.50;99.90;;;;;;6307993;22;20030;-77
2022/01/17 08:57:01;;;;;;;18.63;2.13;;;6.50;99.90;;;;;;6307646;22;20049;-76
2022/01/17 08:59:29;;;;;;;17.67;0.75;;;6.50;99.90;;;;;;6307444;22;20015;-76
2022/01/17 09:01:54;;;;;;;12.95;0.70;;;6.50;99.90;;;;;;6307554;22;19999;-77
2022/01/17 09:04:20;;;;;;;14.75;1.05;;;6.60;99.90;;;;;;6307336;22;20370;-76
2022/01/17 09:06:46;;;;;;;9.68;0.98;;;6.60;99.90;;;;;;6309508;22;19995;-76
2022/01/17 09:09:11;;;;;;;17.23;1.95;;;6.70;99.90;;;;;;6307835;22;20025;-76
2022/01/17 09:11:37;;;;;;;22.23;1.40;;;6.80;99.90;;;;;;6308055;22;20082;-76
2022/01/17 09:14:03;;;;;;;15.05;1.02;;;6.80;99.90;;;;;;6307702;22;20346;-76
2022/01/17 09:16:28;;;;;;;12.93;0.80;;;6.80;99.90;;;;;;6307735;22;20003;-76
2022/01/17 09:18:54;;;;;;;18.77;1.75;;;6.90;99.90;;;;;;6309111;22;20078;-76
2022/01/17 09:21:19;;;;;;;12.75;1.40;;;6.90;99.90;;;;;;6309179;22;20010;-76
2022/01/17 09:23:45;;;;;;;13.15;0.95;;;7.00;99.90;;;;;;6307566;22;20003;-77
2022/01/17 09:26:11;;;;;;;8.45;1.25;;;7.00;99.90;;;;;;6308995;22;19999;-76
2022/01/17 09:28:36;;;;;;;13.13;1.08;;;7.00;99.90;;;;;;6309274;22;19996;-76
2022/01/17 09:31:02;;;;;;;17.52;0.98;;;7.10;99.90;;;;;;6307737;22;20484;-76
2022/01/17 09:33:28;;;;;;;8.85;0.45;;;7.10;99.90;;;;;;6309460;22;20003;-76
2022/01/17 09:35:53;;;;;;;21.05;1.50;;;7.10;99.90;;;;;;6308765;22;20009;-76
2022/01/17 09:38:19;;;;;;;15.70;1.42;;;7.10;99.90;;;;;;6307204;22;20030;-77
2022/01/17 09:40:45;;;;;;;10.60;1.13;;;7.20;99.90;;;;;;6307210;22;20000;-77
2022/01/17 09:43:10;;;;;;;14.40;1.20;;;7.30;99.90;;;;;;6307142;22;20085;-77
2022/01/17 09:45:36;;;;;;;14.80;1.83;;;7.30;99.90;;;;;;6307192;22;20312;-77
2022/01/17 09:48:04;;;;;;;17.13;0.98;;;7.30;99.90;;;;;;6308868;22;19999;-77
2022/01/17 09:50:44;;;;;;;24.25;2.85;;;7.40;99.90;;;;;;6308899;22;20065;-76
2022/01/17 09:53:11;;;;;;;11.38;1.30;;;7.50;99.90;;;;;;6308818;22;20005;-76
2022/01/17 09:55:36;;;;;;;16.63;1.42;;;7.50;99.90;;;;;;6308635;22;20006;-77
2022/01/17 09:58:05;;;;;;;17.35;1.10;;;7.50;99.90;;;;;;6308889;22;20007;-76
2022/01/17 10:00:34;;;;;;;14.77;1.30;;;7.60;99.90;;;;;;6308392;22;19999;-76
2022/01/17 10:03:05;;;;;;;14.48;1.38;;;7.70;99.90;;;;;;6308475;22;19999;-77
2022/01/17 10:05:33;;;;;;;11.75;0.47;;;7.70;99.90;;;;;;6309241;22;19999;-77
2022/01/17 10:08:04;;;;;;;12.95;1.17;;;7.70;99.90;;;;;;6308666;22;20074;-77
2022/01/17 10:10:32;;;;;;;17.30;0.82;;;7.80;99.90;;;;;;6306788;22;19995;-77
2022/01/17 10:13:05;;;;;;;12.18;0.77;;;7.90;99.90;;;;;;6308934;22;20021;-77
2022/01/17 10:15:43;;;;;;;16.40;1.33;;;7.90;99.90;;;;;;6306630;22;20007;-77
2022/01/17 10:18:42;;;;;;;11.77;0.73;;;7.90;99.90;;;;;;6309173;22;20003;-77
2022/01/17 10:21:18;;;;;;;13.65;0.77;;;7.90;99.90;;;;;;6305771;22;20025;-77
2022/01/17 10:27:14;;;;;;;18.70;1.13;;;8.00;99.90;;;;;;6308967;22;20056;-76
2022/01/17 10:35:18;;;;;;;15.55;1.25;;;8.00;99.90;;;;;;6308878;22;20014;-76
2022/01/17 10:38:14;;;;;;;22.10;1.13;;;8.00;99.90;;;;;;6306503;22;20018;-77
2022/01/17 10:40:49;;;;;;;13.45;1.02;;;8.10;99.90;;;;;;6306518;22;20007;-76
2022/01/17 10:43:35;;;;;;;12.13;1.40;;;8.10;99.90;;;;;;6307685;22;19999;-77
2022/01/17 10:46:22;;;;;;;13.75;1.50;;;8.10;99.90;;;;;;6306512;22;20031;-75
2022/01/17 10:48:53;;;;;;;22.77;1.60;;;8.20;99.90;;;;;;6307978;22;20078;-77
2022/01/17 10:51:34;;;;;;;15.68;2.67;;;8.20;99.90;;;;;;6306387;22;19999;-76
2022/01/17 10:54:14;;;;;;;14.07;0.50;;;8.30;99.90;;;;;;6306612;22;20373;-76
2022/01/17 10:57:12;;;;;;;16.60;1.48;;;8.30;99.90;;;;;;6308423;22;20090;-75
2022/01/17 10:59:38;;;;;;;11.18;0.85;;;8.30;99.90;;;;;;6277905;22;20003;-77
2022/01/17 11:02:04;;;;;;;9.75;0.50;;;8.40;99.90;;;;;;6307828;22;20026;-77
2022/01/17 11:04:37;;;;;;;11.30;0.60;;;8.40;99.90;;;;;;6309625;22;19999;-78
2022/01/17 11:07:05;;;;;;;14.27;1.33;;;8.50;99.90;;;;;;6309232;22;20076;-79
2022/01/17 11:09:42;;;;;;;16.53;1.17;;;8.50;99.90;;;;;;6308663;22;20003;-79
2022/01/17 11:12:13;;;;;;;11.70;0.65;;;8.50;99.90;;;;;;6309583;22;20033;-79
2022/01/17 11:14:39;;;;;;;20.40;0.77;;;8.90;99.90;;;;;;6310026;22;20368;-79
2022/01/17 11:17:33;;;;;;;12.57;0.68;;;8.60;99.90;;;;;;6310307;22;20031;-80
2022/01/17 11:20:05;;;;;;;23.85;2.05;;;8.70;99.90;;;;;;6312290;22;20003;-79
2022/01/17 11:22:36;;;;;;;12.55;1.27;;;8.70;99.90;;;;;;6311995;22;20011;-79
2022/01/17 11:25:04;;;;;;;10.93;0.65;;;8.80;99.90;;;;;;6308951;22;20003;-79
2022/01/17 11:27:30;;;;;;;13.20;0.40;;;8.90;99.90;;;;;;6307486;22;20053;-79
2022/01/17 11:29:55;;;;;;;20.75;1.25;;;9.00;99.90;;;;;;6310281;22;20029;-79
2022/01/17 11:32:22;;;;;;;11.98;0.30;;;9.00;99.90;;;;;;6308277;22;19999;-78
2022/01/17 11:34:49;;;;;;;11.98;1.23;;;9.00;99.90;;;;;;6309353;22;19999;-79
2022/01/17 11:37:16;;;;;;;15.40;0.75;;;9.00;99.90;;;;;;6309318;22;20008;-79
2022/01/17 11:39:54;;;;;;;7.22;0.43;;;9.00;99.90;;;;;;6307742;22;20488;-78
2022/01/17 11:42:45;;;;;;;27.77;0.85;;;9.00;99.90;;;;;;6308743;22;20334;-78
2022/01/17 11:45:23;;;;;;;11.60;1.38;;;9.00;99.90;;;;;;6308668;22;20028;-78
2022/01/17 11:48:01;;;;;;;14.07;1.73;;;9.00;99.90;;;;;;6307996;22;20011;-75
2022/01/17 11:50:34;;;;;;;13.50;0.77;;;9.10;99.90;;;;;;6310331;22;20003;-73
2022/01/17 11:53:07;;;;;;;12.82;0.43;;;9.00;99.90;;;;;;6308682;22;20057;-74
2022/01/17 11:55:53;;;;;;;12.52;1.73;;;9.10;99.90;;;;;;6309112;22;20004;-73
2022/01/17 11:58:24;;;;;;;10.80;1.00;;;9.00;99.90;;;;;;6307380;22;20030;-74
2022/01/17 12:01:10;;;;;;;12.90;0.73;;;9.00;99.90;;;;;;6306999;22;20026;-74
2022/01/17 12:03:50;;;;;;;23.30;1.90;;;9.00;99.90;;;;;;6308833;22;20006;-74
2022/01/17 12:06:36;;;;;;;15.15;1.48;;;9.00;99.90;;;;;;6306216;22;20003;-74
2022/01/17 12:09:27;;;;;;;21.70;0.55;;;9.00;99.90;;;;;;6305978;22;20013;-74
2022/01/17 12:11:56;;;;;;;15.10;1.35;;;9.10;99.90;;;;;;6308428;22;20002;-75
2022/01/17 12:14:33;;;;;;;9.93;1.27;;;9.10;99.90;;;;;;6306642;22;20386;-74
2022/01/17 12:17:23;;;;;;;14.82;1.40;;;9.00;99.90;;;;;;6306111;22;20425;-74
2022/01/17 12:20:09;;;;;;;19.05;0.68;;;9.00;99.90;;;;;;6307545;22;20438;-74
2022/01/17 12:22:38;;;;;;;10.90;0.55;;;9.10;99.90;;;;;;6306123;22;20389;-74
2022/01/17 12:25:24;;;;;;;22.15;0.68;;;9.10;99.90;;;;;;6306050;22;20007;-74
2022/01/17 12:27:51;;;;;;;11.75;1.88;;;9.10;99.90;;;;;;6305908;22;20007;-75
2022/01/17 12:30:18;;;;;;;20.50;0.93;;;9.10;99.90;;;;;;6306084;22;20461;-74
2022/01/17 12:32:49;;;;;;;16.27;1.27;;;9.10;99.90;;;;;;6305875;22;20003;-74
2022/01/17 12:35:22;;;;;;;15.70;2.17;;;9.10;99.90;;;;;;6306142;22;20082;-74
2022/01/17 12:38:07;;;;;;;10.45;1.05;;;9.20;99.90;;;;;;6305839;22;20003;-74
2022/01/17 12:40:40;;;;;;;17.35;1.63;;;9.20;99.90;;;;;;6309064;22;20005;-74
2022/01/17 12:43:16;;;;;;;8.02;0.40;;;9.20;99.90;;;;;;6307725;22;19999;-74
2022/01/17 12:45:49;;;;;;;14.18;1.60;;;9.30;99.90;;;;;;6309145;22;19995;-74
2022/01/17 12:48:21;;;;;;;14.95;0.65;;;9.30;99.90;;;;;;6309338;22;19999;-74
2022/01/17 12:50:48;;;;;;;16.50;0.63;;;9.30;99.90;;;;;;6309327;22;20052;-74
2022/01/17 12:53:17;;;;;;;13.27;1.80;;;9.30;99.90;;;;;;6309030;22;20089;-75
2022/01/17 12:55:49;;;;;;;12.82;0.60;;;9.40;99.90;;;;;;6309267;22;20007;-74
2022/01/17 12:58:18;;;;;;;8.48;1.25;;;9.40;99.90;;;;;;6309123;22;19999;-75
2022/01/17 13:00:58;;;;;;;23.63;2.47;;;9.40;99.90;;;;;;6309393;22;20003;-75
2022/01/17 13:03:29;;;;;;;8.30;0.88;;;9.40;99.90;;;;;;6309705;22;20010;-74
2022/01/17 13:05:55;;;;;;;15.07;1.75;;;9.40;99.90;;;;;;6309299;22;20046;-75
2022/01/17 13:08:22;;;;;;;12.90;1.52;;;9.40;99.90;;;;;;6309020;22;19999;-74
2022/01/17 13:10:49;;;;;;;19.98;0.80;;;9.40;99.90;;;;;;6309700;22;19999;-75
2022/01/17 13:13:18;;;;;;;17.77;0.85;;;9.40;99.90;;;;;;6307638;22;19999;-74
2022/01/17 13:15:56;;;;;;;22.02;1.08;;;9.40;99.90;;;;;;6309041;22;20377;-75
2022/01/17 13:18:22;;;;;;;13.07;0.80;;;9.40;99.90;;;;;;6307421;22;20035;-74
2022/01/17 13:20:48;;;;;;;19.42;2.55;;;9.40;99.90;;;;;;6309111;22;20419;-75
2022/01/17 13:23:18;;;;;;;12.75;0.98;;;9.40;99.90;;;;;;6308983;22;20133;-76
2022/01/17 13:25:43;;;;;;;20.17;2.25;;;9.40;99.90;;;;;;6307808;22;20395;-75